Gurli — SLEG — position and weather

sailwx.info

Track history (hours):
 
Tides and Currents Weather Stations Pressure Air Temp Water Temp Dewpoint Dewpoint Depression Visibility Wind Speed Wind Dir Waves Ship Positions

Gurli

Last reported at 2015-Mar-05 05:33 UTC. Time now 2015-Mar-05 06:34 UTC.
Position N 59°19' E 018°10'.

Length 21 m.

Type: Passenger vessel. MMSI: 265687640.

Date/timePositionNaut miles runAvg speedWind from/ knotsBaromVisibWave heightAir tempDewpointWater temp
2015-Mar-05 05:33N 59°19' E 018°10'3 2.5
2015-Mar-05 04:31N 59°20' E 018°05'0 0.0
2015-Mar-05 03:31N 59°20' E 018°05'0 0.0
2015-Mar-05 02:31N 59°20' E 018°05'0 0.0
2015-Mar-05 01:31N 59°20' E 018°05'0 0.0
2015-Mar-05 00:31N 59°20' E 018°05'0 0.0
2015-Mar-04 23:31N 59°20' E 018°05'0 0.0
2015-Mar-04 22:31N 59°20' E 018°05'0 0.0
2015-Mar-04 21:31N 59°20' E 018°05'0 0.0
2015-Mar-04 20:33N 59°20' E 018°05'0 0.0
2015-Mar-04 19:33N 59°20' E 018°05'3 2.7
2015-Mar-04 18:33N 59°19' E 018°10'0 0.4
2015-Mar-04 17:33N 59°19' E 018°09'0 0.0
2015-Mar-04 16:33N 59°19' E 018°09'0 0.4
2015-Mar-04 15:33N 59°19' E 018°09'1 1.0
2015-Mar-04 14:33N 59°19' E 018°07'1 0.7
2015-Mar-04 13:28N 59°19' E 018°09'1 0.9
2015-Mar-04 12:33N 59°19' E 018°07'1 1.0
2015-Mar-04 11:31N 59°19' E 018°10'1 1.1
2015-Mar-04 10:33N 59°19' E 018°07'1 1.0
2015-Mar-04 09:30N 59°19' E 018°10'1 0.9
2015-Mar-04 08:33N 59°19' E 018°08'1 0.9
2015-Mar-04 07:33N 59°19' E 018°10'1 1.1
2015-Mar-04 06:33N 59°19' E 018°07'1 1.2
2015-Mar-04 05:33N 59°19' E 018°10'3 2.5
2015-Mar-04 04:32N 59°20' E 018°05'0 0.0
2015-Mar-04 03:32N 59°20' E 018°05'0 0.0
2015-Mar-04 02:32N 59°20' E 018°05'0 0.0
2015-Mar-04 01:32N 59°20' E 018°05'0 0.0
2015-Mar-04 00:29N 59°20' E 018°05'0 0.0
2015-Mar-03 23:32N 59°20' E 018°05'0 0.0
2015-Mar-03 22:32N 59°20' E 018°05'0 0.0
2015-Mar-03 21:32N 59°20' E 018°05'0 0.0
2015-Mar-03 20:32N 59°20' E 018°05'0 0.0
2015-Mar-03 19:32N 59°20' E 018°05'3 2.6
2015-Mar-03 18:31N 59°19' E 018°10'0 0.4
2015-Mar-03 17:33N 59°19' E 018°09'0 0.2
2015-Mar-03 16:33N 59°19' E 018°08'0 0.4
2015-Mar-03 15:32N 59°19' E 018°09'1 0.8
2015-Mar-03 14:34N 59°19' E 018°08'1 1.0
2015-Mar-03 13:31N 59°19' E 018°10'1 1.1
2015-Mar-03 12:33N 59°19' E 018°07'1 1.1
2015-Mar-03 11:33N 59°19' E 018°10'1 1.1
2015-Mar-03 10:33N 59°19' E 018°07'1 0.7
2015-Mar-03 09:27N 59°19' E 018°09'1 0.7
2015-Mar-03 08:33N 59°19' E 018°08'1 0.7
2015-Mar-03 07:28N 59°19' E 018°09'1 1.0
2015-Mar-03 06:33N 59°19' E 018°07'1 1.2
2015-Mar-03 05:33N 59°19' E 018°10'3 2.5
2015-Mar-03 04:32N 59°20' E 018°05'0 0.0
2015-Mar-03 03:32N 59°20' E 018°05'0 0.0
2015-Mar-03 02:32N 59°20' E 018°05'0 0.0
2015-Mar-03 01:32N 59°20' E 018°05'0 0.0
2015-Mar-03 00:32N 59°20' E 018°05'0 0.0
2015-Mar-02 23:32N 59°20' E 018°05'0 0.0
2015-Mar-02 22:32N 59°20' E 018°05'0 0.0
2015-Mar-02 21:32N 59°20' E 018°05'0 0.0
2015-Mar-02 20:29N 59°20' E 018°05'0 0.0
2015-Mar-02 19:32N 59°20' E 018°05'3 2.3
2015-Mar-02 18:28N 59°19' E 018°09'1 0.9
2015-Mar-02 17:33N 59°19' E 018°08'0 0.2
2015-Mar-02 16:33N 59°19' E 018°09'0 0.4
2015-Mar-02 15:33N 59°19' E 018°09'1 1.0
2015-Mar-02 14:33N 59°19' E 018°07'1 1.1
2015-Mar-02 13:33N 59°19' E 018°10'2 1.8
2015-Mar-02 12:33N 59°19' E 018°06'1 1.1
2015-Mar-02 11:32N 59°20' E 018°05'2 1.8
2015-Mar-02 10:33N 59°19' E 018°07'1 1.1
2015-Mar-02 09:32N 59°19' E 018°10'1 0.7
2015-Mar-02 08:33N 59°19' E 018°08'1 0.7
2015-Mar-02 07:31N 59°19' E 018°10'1 1.1
2015-Mar-02 06:33N 59°19' E 018°07'1 1.2
2015-Mar-02 05:33N 59°19' E 018°10'3 2.5
2015-Mar-02 04:32N 59°20' E 018°05'0 0.0
2015-Mar-02 03:32N 59°20' E 018°05'0 0.0
2015-Mar-02 02:32N 59°20' E 018°05'0 0.0
2015-Mar-02 01:32N 59°20' E 018°05'0 0.0
2015-Mar-02 00:32N 59°20' E 018°05'0 0.0
2015-Mar-01 23:32N 59°20' E 018°05'0 0.0
2015-Mar-01 22:32N 59°20' E 018°05'0 0.0
2015-Mar-01 21:32N 59°20' E 018°05'0 0.0
2015-Mar-01 20:32N 59°20' E 018°05'0 0.0
2015-Mar-01 19:32N 59°20' E 018°05'0 0.0
2015-Mar-01 18:33N 59°20' E 018°05'3 2.4
2015-Mar-01 17:30N 59°20' E 018°10'3 2.7
2015-Mar-01 16:33N 59°20' E 018°05'2 2.5
2015-Mar-01 15:33N 59°20' E 018°09'2 2.4
2015-Mar-01 14:33N 59°20' E 018°05'2 2.4
2015-Mar-01 13:32N 59°20' E 018°09'2 2.4
2015-Mar-01 12:31N 59°20' E 018°05'2 1.6
2015-Mar-01 11:33N 59°19' E 018°07'1 1.0
2015-Mar-01 10:33N 59°19' E 018°09'1 1.0
2015-Mar-01 09:33N 59°19' E 018°07'1 0.9
2015-Mar-01 08:32N 59°19' E 018°09'2 2.3
2015-Mar-01 07:31N 59°20' E 018°05'0 0.0
2015-Mar-01 06:31N 59°20' E 018°05'0 0.0
2015-Mar-01 05:31N 59°20' E 018°05'0 0.0
2015-Mar-01 04:31N 59°20' E 018°05'0 0.0
2015-Mar-01 03:31N 59°20' E 018°05'0 0.0
2015-Mar-01 02:31N 59°20' E 018°05'0 0.0
2015-Mar-01 01:31N 59°20' E 018°05'0 0.0
2015-Mar-01 00:31N 59°20' E 018°05'0 0.0
2015-Feb-28 23:31N 59°20' E 018°05'0 0.0
2015-Feb-28 22:31N 59°20' E 018°05'0 0.0
2015-Feb-28 21:31N 59°20' E 018°05'0 0.0
2015-Feb-28 20:33N 59°20' E 018°05'0 0.0
2015-Feb-28 19:33N 59°20' E 018°05'0 0.0
2015-Feb-28 18:33N 59°20' E 018°05'3 2.4
2015-Feb-28 17:30N 59°20' E 018°10'3 2.7
2015-Feb-28 16:33N 59°20' E 018°05'3 2.5
2015-Feb-28 15:33N 59°20' E 018°10'3 2.6
2015-Feb-28 14:33N 59°20' E 018°05'2 2.4
2015-Feb-28 13:31N 59°20' E 018°09'2 2.6
2015-Feb-28 12:33N 59°20' E 018°05'2 1.5
2015-Feb-28 11:33N 59°19' E 018°07'1 0.9
2015-Feb-28 10:32N 59°19' E 018°09'1 0.9
2015-Feb-28 09:33N 59°19' E 018°07'1 1.1
2015-Feb-28 08:31N 59°19' E 018°09'2 2.5
2015-Feb-28 07:33N 59°20' E 018°05'0 0.0
2015-Feb-28 06:33N 59°20' E 018°05'0 0.0
2015-Feb-28 05:32N 59°20' E 018°05'0 0.0
2015-Feb-28 04:32N 59°20' E 018°05'0 0.0
2015-Feb-28 03:32N 59°20' E 018°05'0 0.0
2015-Feb-28 02:32N 59°20' E 018°05'0 0.0
2015-Feb-28 01:32N 59°20' E 018°05'0 0.0
2015-Feb-28 00:32N 59°20' E 018°05'0 0.0
2015-Feb-27 23:32N 59°20' E 018°05'0 0.0
2015-Feb-27 22:32N 59°20' E 018°05'0 0.0
2015-Feb-27 21:32N 59°20' E 018°05'0 0.0
2015-Feb-27 20:32N 59°20' E 018°05'0 0.0
2015-Feb-27 19:29N 59°20' E 018°05'3 2.8
2015-Feb-27 18:33N 59°19' E 018°10'0 0.5
2015-Feb-27 17:33N 59°19' E 018°09'0 0.0
2015-Feb-27 16:32N 59°19' E 018°09'0 0.0
2015-Feb-27 15:30N 59°19' E 018°09'0 0.3
2015-Feb-27 14:31N 59°19' E 018°08'1 0.8
2015-Feb-27 13:32N 59°19' E 018°10'1 1.1
2015-Feb-27 12:33N 59°19' E 018°07'1 1.1
2015-Feb-27 11:32N 59°19' E 018°10'1 1.1
2015-Feb-27 10:34N 59°19' E 018°08'1 0.8
2015-Feb-27 09:29N 59°19' E 018°09'1 0.8
2015-Feb-27 08:33N 59°19' E 018°08'1 0.8
2015-Feb-27 07:30N 59°19' E 018°09'1 1.0
2015-Feb-27 06:33N 59°19' E 018°07'1 1.1
2015-Feb-27 05:33N 59°19' E 018°10'3 2.5
2015-Feb-27 04:31N 59°20' E 018°05'0 0.0
2015-Feb-27 03:31N 59°20' E 018°05'0 0.0
2015-Feb-27 02:31N 59°20' E 018°05'0 0.0
2015-Feb-27 01:31N 59°20' E 018°05'0 0.0
2015-Feb-27 00:31N 59°20' E 018°05'0 0.0
2015-Feb-26 23:31N 59°20' E 018°05'0 0.0
2015-Feb-26 22:31N 59°20' E 018°05'0 0.0
2015-Feb-26 21:31N 59°20' E 018°05'0 0.0
2015-Feb-26 20:31N 59°20' E 018°05'0 0.0
2015-Feb-26 19:31N 59°20' E 018°05'3 2.5
2015-Feb-26 18:30N 59°19' E 018°10'1 0.7
2015-Feb-26 17:33N 59°19' E 018°08'0 0.3
2015-Feb-26 16:33N 59°19' E 018°09'0 0.1
2015-Feb-26 15:32N 59°19' E 018°09'1 0.8
2015-Feb-26 14:33N 59°19' E 018°07'1 1.0
2015-Feb-26 13:31N 59°19' E 018°10'1 1.1
2015-Feb-26 12:33N 59°19' E 018°07'1 0.7
2015-Feb-26 11:29N 59°19' E 018°09'1 0.9
2015-Feb-26 10:33N 59°19' E 018°07'1 1.1
2015-Feb-26 09:32N 59°19' E 018°10'1 1.0
2015-Feb-26 08:33N 59°19' E 018°08'1 1.0
2015-Feb-26 07:33N 59°19' E 018°10'1 1.1
2015-Feb-26 06:33N 59°19' E 018°07'1 0.9
2015-Feb-26 05:32N 59°19' E 018°09'2 2.5
2015-Feb-26 04:32N 59°20' E 018°05'0 0.0
2015-Feb-26 03:32N 59°20' E 018°05'0 0.0
2015-Feb-26 02:32N 59°20' E 018°05'0 0.0
2015-Feb-26 01:32N 59°20' E 018°05'0 0.0
2015-Feb-26 00:32N 59°20' E 018°05'0 0.0
2015-Feb-25 23:32N 59°20' E 018°05'0 0.0
2015-Feb-25 22:32N 59°20' E 018°05'0 0.0
2015-Feb-25 21:32N 59°20' E 018°05'0 0.0
2015-Feb-25 20:31N 59°20' E 018°05'0 0.0
2015-Feb-25 19:31N 59°20' E 018°05'3 2.7
2015-Feb-25 18:32N 59°19' E 018°10'1 0.7
2015-Feb-25 17:33N 59°19' E 018°08'0 0.2
2015-Feb-25 16:33N 59°19' E 018°09'0 0.3
2015-Feb-25 15:33N 59°19' E 018°09'1 0.9
2015-Feb-25 14:33N 59°19' E 018°07'1 0.9
2015-Feb-25 13:30N 59°19' E 018°09'1 1.0
2015-Feb-25 12:33N 59°19' E 018°07'1 1.1
2015-Feb-25 11:32N 59°19' E 018°10'1 1.1
2015-Feb-25 10:33N 59°19' E 018°07'1 1.1
2015-Feb-25 09:33N 59°19' E 018°10'1 0.9
2015-Feb-25 08:33N 59°19' E 018°08'1 0.9
2015-Feb-25 07:33N 59°19' E 018°10'1 1.1
2015-Feb-25 06:32N 59°19' E 018°07'1 1.1
2015-Feb-25 05:33N 59°19' E 018°10'3 2.5
2015-Feb-25 04:31N 59°20' E 018°05'0 0.0
2015-Feb-25 03:31N 59°20' E 018°05'0 0.0
2015-Feb-25 02:31N 59°20' E 018°05'0 0.0
2015-Feb-25 01:31N 59°20' E 018°05'0 0.0
2015-Feb-25 00:34N 59°20' E 018°05'0 0.0
2015-Feb-24 23:33N 59°20' E 018°05'0 0.0
2015-Feb-24 22:33N 59°20' E 018°05'0 0.0
2015-Feb-24 21:33N 59°20' E 018°05'0 0.0
2015-Feb-24 20:33N 59°20' E 018°05'0 0.0
2015-Feb-24 19:33N 59°20' E 018°05'3 2.7
2015-Feb-24 18:33N 59°19' E 018°10'1 0.7
2015-Feb-24 17:33N 59°19' E 018°08'0 0.3
2015-Feb-24 16:32N 59°19' E 018°09'0 0.2
2015-Feb-24 15:32N 59°19' E 018°09'1 0.9
2015-Feb-24 14:33N 59°19' E 018°07'1 1.1
2015-Feb-24 13:32N 59°19' E 018°10'1 1.1
2015-Feb-24 12:33N 59°19' E 018°07'1 1.1
2015-Feb-24 11:32N 59°19' E 018°10'1 1.0
2015-Feb-24 10:33N 59°19' E 018°08'1 0.9
2015-Feb-24 09:30N 59°19' E 018°09'1 0.7
2015-Feb-24 08:33N 59°19' E 018°08'1 0.8
2015-Feb-24 07:33N 59°19' E 018°10'1 1.1
2015-Feb-24 06:33N 59°19' E 018°07'1 1.0
2015-Feb-24 05:28N 59°19' E 018°10'3 2.8
2015-Feb-24 04:31N 59°20' E 018°05'0 0.0
2015-Feb-24 03:31N 59°20' E 018°05'0 0.0
2015-Feb-24 02:31N 59°20' E 018°05'0 0.0
2015-Feb-24 01:31N 59°20' E 018°05'0 0.0
2015-Feb-24 00:31N 59°20' E 018°05'0 0.0
2015-Feb-23 23:31N 59°20' E 018°05'0 0.0
2015-Feb-23 22:22N 59°20' E 018°05'0 0.0
2015-Feb-23 21:25N 59°20' E 018°05'0 0.0
2015-Feb-23 20:31N 59°20' E 018°05'0 0.0
2015-Feb-23 19:31N 59°20' E 018°05'3 2.7
2015-Feb-23 18:33N 59°19' E 018°10'1 0.6
2015-Feb-23 17:33N 59°19' E 018°08'0 0.0
2015-Feb-23 16:34N 59°19' E 018°08'0 0.2
2015-Feb-23 15:29N 59°19' E 018°09'1 0.7
2015-Feb-23 14:33N 59°19' E 018°07'1 0.9
2015-Feb-23 13:29N 59°19' E 018°09'3 2.5
2015-Feb-23 12:28N 59°20' E 018°05'1 1.4
2015-Feb-23 11:29N 59°19' E 018°06'1 0.8
2015-Feb-23 10:32N 59°19' E 018°07'1 0.7
2015-Feb-23 09:28N 59°19' E 018°09'1 0.7
2015-Feb-23 08:33N 59°19' E 018°08'1 0.9
2015-Feb-23 07:33N 59°19' E 018°10'1 1.1
2015-Feb-23 06:33N 59°19' E 018°07'  
Track history (hours):
 
Tides and Currents Weather Stations Pressure Air Temp Water Temp Dewpoint Dewpoint Depression Visibility Wind Speed Wind Dir Waves Ship Positions

Gurli

Last reported at 2015-Mar-05 05:33 UTC. Time now 2015-Mar-05 06:34 UTC.
Position N 59°19' E 018°10'.

Length 21 m.

Type: Passenger vessel. MMSI: 265687640.

Date/timePositionNaut miles runAvg speedWind from/ knotsBaromVisibWave heightAir tempDewpointWater temp
2015-Mar-05 05:33N 59°19' E 018°10'3 2.5
2015-Mar-05 04:31N 59°20' E 018°05'0 0.0
2015-Mar-05 03:31N 59°20' E 018°05'0 0.0
2015-Mar-05 02:31N 59°20' E 018°05'0 0.0
2015-Mar-05 01:31N 59°20' E 018°05'0 0.0
2015-Mar-05 00:31N 59°20' E 018°05'0 0.0
2015-Mar-04 23:31N 59°20' E 018°05'0 0.0
2015-Mar-04 22:31N 59°20' E 018°05'0 0.0
2015-Mar-04 21:31N 59°20' E 018°05'0 0.0
2015-Mar-04 20:33N 59°20' E 018°05'0 0.0
2015-Mar-04 19:33N 59°20' E 018°05'3 2.7
2015-Mar-04 18:33N 59°19' E 018°10'0 0.4
2015-Mar-04 17:33N 59°19' E 018°09'0 0.0
2015-Mar-04 16:33N 59°19' E 018°09'0 0.4
2015-Mar-04 15:33N 59°19' E 018°09'1 1.0
2015-Mar-04 14:33N 59°19' E 018°07'1 0.7
2015-Mar-04 13:28N 59°19' E 018°09'1 0.9
2015-Mar-04 12:33N 59°19' E 018°07'1 1.0
2015-Mar-04 11:31N 59°19' E 018°10'1 1.1
2015-Mar-04 10:33N 59°19' E 018°07'1 1.0
2015-Mar-04 09:30N 59°19' E 018°10'1 0.9
2015-Mar-04 08:33N 59°19' E 018°08'1 0.9
2015-Mar-04 07:33N 59°19' E 018°10'1 1.1
2015-Mar-04 06:33N 59°19' E 018°07'1 1.2
2015-Mar-04 05:33N 59°19' E 018°10'3 2.5
2015-Mar-04 04:32N 59°20' E 018°05'0 0.0
2015-Mar-04 03:32N 59°20' E 018°05'0 0.0
2015-Mar-04 02:32N 59°20' E 018°05'0 0.0
2015-Mar-04 01:32N 59°20' E 018°05'0 0.0
2015-Mar-04 00:29N 59°20' E 018°05'0 0.0
2015-Mar-03 23:32N 59°20' E 018°05'0 0.0
2015-Mar-03 22:32N 59°20' E 018°05'0 0.0
2015-Mar-03 21:32N 59°20' E 018°05'0 0.0
2015-Mar-03 20:32N 59°20' E 018°05'0 0.0
2015-Mar-03 19:32N 59°20' E 018°05'3 2.6
2015-Mar-03 18:31N 59°19' E 018°10'0 0.4
2015-Mar-03 17:33N 59°19' E 018°09'0 0.2
2015-Mar-03 16:33N 59°19' E 018°08'0 0.4
2015-Mar-03 15:32N 59°19' E 018°09'1 0.8
2015-Mar-03 14:34N 59°19' E 018°08'1 1.0
2015-Mar-03 13:31N 59°19' E 018°10'1 1.1
2015-Mar-03 12:33N 59°19' E 018°07'1 1.1
2015-Mar-03 11:33N 59°19' E 018°10'1 1.1
2015-Mar-03 10:33N 59°19' E 018°07'1 0.7
2015-Mar-03 09:27N 59°19' E 018°09'1 0.7
2015-Mar-03 08:33N 59°19' E 018°08'1 0.7
2015-Mar-03 07:28N 59°19' E 018°09'1 1.0
2015-Mar-03 06:33N 59°19' E 018°07'1 1.2
2015-Mar-03 05:33N 59°19' E 018°10'3 2.5
2015-Mar-03 04:32N 59°20' E 018°05'0 0.0
2015-Mar-03 03:32N 59°20' E 018°05'0 0.0
2015-Mar-03 02:32N 59°20' E 018°05'0 0.0
2015-Mar-03 01:32N 59°20' E 018°05'0 0.0
2015-Mar-03 00:32N 59°20' E 018°05'0 0.0
2015-Mar-02 23:32N 59°20' E 018°05'0 0.0
2015-Mar-02 22:32N 59°20' E 018°05'0 0.0
2015-Mar-02 21:32N 59°20' E 018°05'0 0.0
2015-Mar-02 20:29N 59°20' E 018°05'0 0.0
2015-Mar-02 19:32N 59°20' E 018°05'3 2.3
2015-Mar-02 18:28N 59°19' E 018°09'1 0.9
2015-Mar-02 17:33N 59°19' E 018°08'0 0.2
2015-Mar-02 16:33N 59°19' E 018°09'0 0.4
2015-Mar-02 15:33N 59°19' E 018°09'1 1.0
2015-Mar-02 14:33N 59°19' E 018°07'1 1.1
2015-Mar-02 13:33N 59°19' E 018°10'2 1.8
2015-Mar-02 12:33N 59°19' E 018°06'1 1.1
2015-Mar-02 11:32N 59°20' E 018°05'2 1.8
2015-Mar-02 10:33N 59°19' E 018°07'1 1.1
2015-Mar-02 09:32N 59°19' E 018°10'1 0.7
2015-Mar-02 08:33N 59°19' E 018°08'1 0.7
2015-Mar-02 07:31N 59°19' E 018°10'1 1.1
2015-Mar-02 06:33N 59°19' E 018°07'1 1.2
2015-Mar-02 05:33N 59°19' E 018°10'3 2.5
2015-Mar-02 04:32N 59°20' E 018°05'0 0.0
2015-Mar-02 03:32N 59°20' E 018°05'0 0.0
2015-Mar-02 02:32N 59°20' E 018°05'0 0.0
2015-Mar-02 01:32N 59°20' E 018°05'0 0.0
2015-Mar-02 00:32N 59°20' E 018°05'0 0.0
2015-Mar-01 23:32N 59°20' E 018°05'0 0.0
2015-Mar-01 22:32N 59°20' E 018°05'0 0.0
2015-Mar-01 21:32N 59°20' E 018°05'0 0.0
2015-Mar-01 20:32N 59°20' E 018°05'0 0.0
2015-Mar-01 19:32N 59°20' E 018°05'0 0.0
2015-Mar-01 18:33N 59°20' E 018°05'3 2.4
2015-Mar-01 17:30N 59°20' E 018°10'3 2.7
2015-Mar-01 16:33N 59°20' E 018°05'2 2.5
2015-Mar-01 15:33N 59°20' E 018°09'2 2.4
2015-Mar-01 14:33N 59°20' E 018°05'2 2.4
2015-Mar-01 13:32N 59°20' E 018°09'2 2.4
2015-Mar-01 12:31N 59°20' E 018°05'2 1.6
2015-Mar-01 11:33N 59°19' E 018°07'1 1.0
2015-Mar-01 10:33N 59°19' E 018°09'1 1.0
2015-Mar-01 09:33N 59°19' E 018°07'1 0.9
2015-Mar-01 08:32N 59°19' E 018°09'2 2.3
2015-Mar-01 07:31N 59°20' E 018°05'0 0.0
2015-Mar-01 06:31N 59°20' E 018°05'0 0.0
2015-Mar-01 05:31N 59°20' E 018°05'0 0.0
2015-Mar-01 04:31N 59°20' E 018°05'0 0.0
2015-Mar-01 03:31N 59°20' E 018°05'0 0.0
2015-Mar-01 02:31N 59°20' E 018°05'0 0.0
2015-Mar-01 01:31N 59°20' E 018°05'0 0.0
2015-Mar-01 00:31N 59°20' E 018°05'0 0.0
2015-Feb-28 23:31N 59°20' E 018°05'0 0.0
2015-Feb-28 22:31N 59°20' E 018°05'0 0.0
2015-Feb-28 21:31N 59°20' E 018°05'0 0.0
2015-Feb-28 20:33N 59°20' E 018°05'0 0.0
2015-Feb-28 19:33N 59°20' E 018°05'0 0.0
2015-Feb-28 18:33N 59°20' E 018°05'3 2.4
2015-Feb-28 17:30N 59°20' E 018°10'3 2.7
2015-Feb-28 16:33N 59°20' E 018°05'3 2.5
2015-Feb-28 15:33N 59°20' E 018°10'3 2.6
2015-Feb-28 14:33N 59°20' E 018°05'2 2.4
2015-Feb-28 13:31N 59°20' E 018°09'2 2.6
2015-Feb-28 12:33N 59°20' E 018°05'2 1.5
2015-Feb-28 11:33N 59°19' E 018°07'1 0.9
2015-Feb-28 10:32N 59°19' E 018°09'1 0.9
2015-Feb-28 09:33N 59°19' E 018°07'1 1.1
2015-Feb-28 08:31N 59°19' E 018°09'2 2.5
2015-Feb-28 07:33N 59°20' E 018°05'0 0.0
2015-Feb-28 06:33N 59°20' E 018°05'0 0.0
2015-Feb-28 05:32N 59°20' E 018°05'0 0.0
2015-Feb-28 04:32N 59°20' E 018°05'0 0.0
2015-Feb-28 03:32N 59°20' E 018°05'0 0.0
2015-Feb-28 02:32N 59°20' E 018°05'0 0.0
2015-Feb-28 01:32N 59°20' E 018°05'0 0.0
2015-Feb-28 00:32N 59°20' E 018°05'0 0.0
2015-Feb-27 23:32N 59°20' E 018°05'0 0.0
2015-Feb-27 22:32N 59°20' E 018°05'0 0.0
2015-Feb-27 21:32N 59°20' E 018°05'0 0.0
2015-Feb-27 20:32N 59°20' E 018°05'0 0.0
2015-Feb-27 19:29N 59°20' E 018°05'3 2.8
2015-Feb-27 18:33N 59°19' E 018°10'0 0.5
2015-Feb-27 17:33N 59°19' E 018°09'0 0.0
2015-Feb-27 16:32N 59°19' E 018°09'0 0.0
2015-Feb-27 15:30N 59°19' E 018°09'0 0.3
2015-Feb-27 14:31N 59°19' E 018°08'1 0.8
2015-Feb-27 13:32N 59°19' E 018°10'1 1.1
2015-Feb-27 12:33N 59°19' E 018°07'1 1.1
2015-Feb-27 11:32N 59°19' E 018°10'1 1.1
2015-Feb-27 10:34N 59°19' E 018°08'1 0.8
2015-Feb-27 09:29N 59°19' E 018°09'1 0.8
2015-Feb-27 08:33N 59°19' E 018°08'1 0.8
2015-Feb-27 07:30N 59°19' E 018°09'1 1.0
2015-Feb-27 06:33N 59°19' E 018°07'1 1.1
2015-Feb-27 05:33N 59°19' E 018°10'3 2.5
2015-Feb-27 04:31N 59°20' E 018°05'0 0.0
2015-Feb-27 03:31N 59°20' E 018°05'0 0.0
2015-Feb-27 02:31N 59°20' E 018°05'0 0.0
2015-Feb-27 01:31N 59°20' E 018°05'0 0.0
2015-Feb-27 00:31N 59°20' E 018°05'0 0.0
2015-Feb-26 23:31N 59°20' E 018°05'0 0.0
2015-Feb-26 22:31N 59°20' E 018°05'0 0.0
2015-Feb-26 21:31N 59°20' E 018°05'0 0.0
2015-Feb-26 20:31N 59°20' E 018°05'0 0.0
2015-Feb-26 19:31N 59°20' E 018°05'3 2.5
2015-Feb-26 18:30N 59°19' E 018°10'1 0.7
2015-Feb-26 17:33N 59°19' E 018°08'0 0.3
2015-Feb-26 16:33N 59°19' E 018°09'0 0.1
2015-Feb-26 15:32N 59°19' E 018°09'1 0.8
2015-Feb-26 14:33N 59°19' E 018°07'1 1.0
2015-Feb-26 13:31N 59°19' E 018°10'1 1.1
2015-Feb-26 12:33N 59°19' E 018°07'1 0.7
2015-Feb-26 11:29N 59°19' E 018°09'1 0.9
2015-Feb-26 10:33N 59°19' E 018°07'1 1.1
2015-Feb-26 09:32N 59°19' E 018°10'1 1.0
2015-Feb-26 08:33N 59°19' E 018°08'1 1.0
2015-Feb-26 07:33N 59°19' E 018°10'1 1.1
2015-Feb-26 06:33N 59°19' E 018°07'1 0.9
2015-Feb-26 05:32N 59°19' E 018°09'2 2.5
2015-Feb-26 04:32N 59°20' E 018°05'0 0.0
2015-Feb-26 03:32N 59°20' E 018°05'0 0.0
2015-Feb-26 02:32N 59°20' E 018°05'0 0.0
2015-Feb-26 01:32N 59°20' E 018°05'0 0.0
2015-Feb-26 00:32N 59°20' E 018°05'0 0.0
2015-Feb-25 23:32N 59°20' E 018°05'0 0.0
2015-Feb-25 22:32N 59°20' E 018°05'0 0.0
2015-Feb-25 21:32N 59°20' E 018°05'0 0.0
2015-Feb-25 20:31N 59°20' E 018°05'0 0.0
2015-Feb-25 19:31N 59°20' E 018°05'3 2.7
2015-Feb-25 18:32N 59°19' E 018°10'1 0.7
2015-Feb-25 17:33N 59°19' E 018°08'0 0.2
2015-Feb-25 16:33N 59°19' E 018°09'0 0.3
2015-Feb-25 15:33N 59°19' E 018°09'1 0.9
2015-Feb-25 14:33N 59°19' E 018°07'1 0.9
2015-Feb-25 13:30N 59°19' E 018°09'1 1.0
2015-Feb-25 12:33N 59°19' E 018°07'1 1.1
2015-Feb-25 11:32N 59°19' E 018°10'1 1.1
2015-Feb-25 10:33N 59°19' E 018°07'1 1.1
2015-Feb-25 09:33N 59°19' E 018°10'1 0.9
2015-Feb-25 08:33N 59°19' E 018°08'1 0.9
2015-Feb-25 07:33N 59°19' E 018°10'1 1.1
2015-Feb-25 06:32N 59°19' E 018°07'1 1.1
2015-Feb-25 05:33N 59°19' E 018°10'3 2.5
2015-Feb-25 04:31N 59°20' E 018°05'0 0.0
2015-Feb-25 03:31N 59°20' E 018°05'0 0.0
2015-Feb-25 02:31N 59°20' E 018°05'0 0.0
2015-Feb-25 01:31N 59°20' E 018°05'0 0.0
2015-Feb-25 00:34N 59°20' E 018°05'0 0.0
2015-Feb-24 23:33N 59°20' E 018°05'0 0.0
2015-Feb-24 22:33N 59°20' E 018°05'0 0.0
2015-Feb-24 21:33N 59°20' E 018°05'0 0.0
2015-Feb-24 20:33N 59°20' E 018°05'0 0.0
2015-Feb-24 19:33N 59°20' E 018°05'3 2.7
2015-Feb-24 18:33N 59°19' E 018°10'1 0.7
2015-Feb-24 17:33N 59°19' E 018°08'0 0.3
2015-Feb-24 16:32N 59°19' E 018°09'0 0.2
2015-Feb-24 15:32N 59°19' E 018°09'1 0.9
2015-Feb-24 14:33N 59°19' E 018°07'1 1.1
2015-Feb-24 13:32N 59°19' E 018°10'1 1.1
2015-Feb-24 12:33N 59°19' E 018°07'1 1.1
2015-Feb-24 11:32N 59°19' E 018°10'1 1.0
2015-Feb-24 10:33N 59°19' E 018°08'1 0.9
2015-Feb-24 09:30N 59°19' E 018°09'1 0.7
2015-Feb-24 08:33N 59°19' E 018°08'1 0.8
2015-Feb-24 07:33N 59°19' E 018°10'1 1.1
2015-Feb-24 06:33N 59°19' E 018°07'1 1.0
2015-Feb-24 05:28N 59°19' E 018°10'3 2.8
2015-Feb-24 04:31N 59°20' E 018°05'0 0.0
2015-Feb-24 03:31N 59°20' E 018°05'0 0.0
2015-Feb-24 02:31N 59°20' E 018°05'0 0.0
2015-Feb-24 01:31N 59°20' E 018°05'0 0.0
2015-Feb-24 00:31N 59°20' E 018°05'0 0.0
2015-Feb-23 23:31N 59°20' E 018°05'0 0.0
2015-Feb-23 22:22N 59°20' E 018°05'0 0.0
2015-Feb-23 21:25N 59°20' E 018°05'0 0.0
2015-Feb-23 20:31N 59°20' E 018°05'0 0.0
2015-Feb-23 19:31N 59°20' E 018°05'3 2.7
2015-Feb-23 18:33N 59°19' E 018°10'1 0.6
2015-Feb-23 17:33N 59°19' E 018°08'0 0.0
2015-Feb-23 16:34N 59°19' E 018°08'0 0.2
2015-Feb-23 15:29N 59°19' E 018°09'1 0.7
2015-Feb-23 14:33N 59°19' E 018°07'1 0.9
2015-Feb-23 13:29N 59°19' E 018°09'3 2.5
2015-Feb-23 12:28N 59°20' E 018°05'1 1.4
2015-Feb-23 11:29N 59°19' E 018°06'1 0.8
2015-Feb-23 10:32N 59°19' E 018°07'1 0.7
2015-Feb-23 09:28N 59°19' E 018°09'1 0.7
2015-Feb-23 08:33N 59°19' E 018°08'1 0.9
2015-Feb-23 07:33N 59°19' E 018°10'1 1.1
2015-Feb-23 06:33N 59°19' E 018°07'  

Dump ship's entire track history